sensor_id;sensor_type;location;lat;lon;timestamp;P1;durP1;ratioP1;P2;durP2;ratioP2
54555;SDS011;57291;37.520;15.106;2024-03-23T00:54:02;12.38;;;8.35;;
54555;SDS011;57291;37.520;15.106;2024-03-23T00:56:29;13.43;;;8.38;;
54555;SDS011;57291;37.520;15.106;2024-03-23T00:58:55;11.88;;;8.35;;
54555;SDS011;57291;37.520;15.106;2024-03-23T01:01:21;10.50;;;7.78;;
54555;SDS011;57291;37.520;15.106;2024-03-23T01:03:48;10.93;;;8.27;;
54555;SDS011;57291;37.520;15.106;2024-03-23T01:06:14;14.70;;;9.00;;
54555;SDS011;57291;37.520;15.106;2024-03-23T01:08:41;11.32;;;8.65;;
54555;SDS011;57291;37.520;15.106;2024-03-23T01:11:08;10.77;;;8.30;;
54555;SDS011;57291;37.520;15.106;2024-03-23T01:13:34;10.93;;;8.55;;
54555;SDS011;57291;37.520;15.106;2024-03-23T01:16:00;13.18;;;9.60;;
54555;SDS011;57291;37.520;15.106;2024-03-23T01:18:27;14.25;;;9.55;;
54555;SDS011;57291;37.520;15.106;2024-03-23T01:20:53;14.25;;;8.75;;
54555;SDS011;57291;37.520;15.106;2024-03-23T01:23:20;14.82;;;9.63;;
54555;SDS011;57291;37.520;15.106;2024-03-23T01:25:52;12.02;;;9.35;;
54555;SDS011;57291;37.520;15.106;2024-03-23T01:28:19;14.32;;;9.30;;
54555;SDS011;57291;37.520;15.106;2024-03-23T01:30:46;13.02;;;9.60;;
54555;SDS011;57291;37.520;15.106;2024-03-23T01:33:12;11.68;;;9.00;;
54555;SDS011;57291;37.520;15.106;2024-03-23T01:35:38;12.10;;;9.20;;
54555;SDS011;57291;37.520;15.106;2024-03-23T01:38:05;13.23;;;9.75;;
54555;SDS011;57291;37.520;15.106;2024-03-23T01:40:31;13.95;;;9.40;;
54555;SDS011;57291;37.520;15.106;2024-03-23T01:42:58;11.85;;;8.85;;
54555;SDS011;57291;37.520;15.106;2024-03-23T01:45:29;12.00;;;9.52;;
54555;SDS011;57291;37.520;15.106;2024-03-23T01:47:56;12.68;;;10.05;;
54555;SDS011;57291;37.520;15.106;2024-03-23T01:50:23;12.30;;;9.00;;
54555;SDS011;57291;37.520;15.106;2024-03-23T01:52:50;12.25;;;8.73;;
54555;SDS011;57291;37.520;15.106;2024-03-23T01:55:17;12.98;;;9.18;;
54555;SDS011;57291;37.520;15.106;2024-03-23T01:57:43;11.48;;;8.77;;
54555;SDS011;57291;37.520;15.106;2024-03-23T02:00:10;11.50;;;9.55;;
54555;SDS011;57291;37.520;15.106;2024-03-23T02:02:47;13.38;;;8.80;;
54555;SDS011;57291;37.520;15.106;2024-03-23T02:05:13;10.93;;;8.70;;
54555;SDS011;57291;37.520;15.106;2024-03-23T02:07:41;11.80;;;8.95;;
54555;SDS011;57291;37.520;15.106;2024-03-23T02:10:09;11.48;;;8.63;;
54555;SDS011;57291;37.520;15.106;2024-03-23T02:12:36;11.68;;;8.63;;
54555;SDS011;57291;37.520;15.106;2024-03-23T02:15:03;13.75;;;9.35;;
54555;SDS011;57291;37.520;15.106;2024-03-23T02:17:30;11.32;;;8.48;;
54555;SDS011;57291;37.520;15.106;2024-03-23T02:19:57;10.50;;;7.65;;
54555;SDS011;57291;37.520;15.106;2024-03-23T02:22:24;10.70;;;7.97;;
54555;SDS011;57291;37.520;15.106;2024-03-23T02:24:50;9.55;;;7.80;;
54555;SDS011;57291;37.520;15.106;2024-03-23T02:27:16;10.90;;;7.93;;
54555;SDS011;57291;37.520;15.106;2024-03-23T02:29:42;10.23;;;7.55;;
54555;SDS011;57291;37.520;15.106;2024-03-23T02:32:08;8.05;;;6.80;;
54555;SDS011;57291;37.520;15.106;2024-03-23T02:34:35;8.25;;;6.90;;
54555;SDS011;57291;37.520;15.106;2024-03-23T02:37:01;8.88;;;7.00;;
54555;SDS011;57291;37.520;15.106;2024-03-23T02:39:28;9.25;;;7.07;;
54555;SDS011;57291;37.520;15.106;2024-03-23T02:41:54;8.50;;;6.68;;
54555;SDS011;57291;37.520;15.106;2024-03-23T02:44:20;9.50;;;7.13;;
54555;SDS011;57291;37.520;15.106;2024-03-23T02:46:46;8.68;;;6.40;;
54555;SDS011;57291;37.520;15.106;2024-03-23T02:49:13;9.15;;;6.72;;
54555;SDS011;57291;37.520;15.106;2024-03-23T02:51:40;10.23;;;7.35;;
54555;SDS011;57291;37.520;15.106;2024-03-23T02:54:06;10.35;;;7.18;;
54555;SDS011;57291;37.520;15.106;2024-03-23T02:56:32;9.32;;;7.60;;
54555;SDS011;57291;37.520;15.106;2024-03-23T02:58:59;11.23;;;8.00;;
54555;SDS011;57291;37.520;15.106;2024-03-23T03:01:25;11.98;;;8.57;;
54555;SDS011;57291;37.520;15.106;2024-03-23T03:03:51;11.52;;;8.88;;
54555;SDS011;57291;37.520;15.106;2024-03-23T03:06:24;13.52;;;9.20;;
54555;SDS011;57291;37.520;15.106;2024-03-23T03:08:53;11.43;;;8.50;;
54555;SDS011;57291;37.520;15.106;2024-03-23T03:11:19;13.45;;;9.43;;
54555;SDS011;57291;37.520;15.106;2024-03-23T03:13:46;11.85;;;9.27;;
54555;SDS011;57291;37.520;15.106;2024-03-23T03:16:12;11.55;;;8.90;;
54555;SDS011;57291;37.520;15.106;2024-03-23T03:18:38;11.85;;;9.23;;
54555;SDS011;57291;37.520;15.106;2024-03-23T03:21:06;12.15;;;9.30;;
54555;SDS011;57291;37.520;15.106;2024-03-23T03:23:37;13.60;;;9.85;;
54555;SDS011;57291;37.520;15.106;2024-03-23T03:26:06;12.70;;;9.20;;
54555;SDS011;57291;37.520;15.106;2024-03-23T03:28:33;12.23;;;9.57;;
54555;SDS011;57291;37.520;15.106;2024-03-23T03:31:00;13.43;;;9.80;;
54555;SDS011;57291;37.520;15.106;2024-03-23T03:33:27;13.10;;;9.65;;
54555;SDS011;57291;37.520;15.106;2024-03-23T03:35:54;13.98;;;10.95;;
54555;SDS011;57291;37.520;15.106;2024-03-23T03:38:20;15.73;;;12.57;;
54555;SDS011;57291;37.520;15.106;2024-03-23T03:40:47;15.85;;;12.27;;
54555;SDS011;57291;37.520;15.106;2024-03-23T03:43:13;14.07;;;11.48;;
54555;SDS011;57291;37.520;15.106;2024-03-23T03:45:39;16.95;;;12.73;;
54555;SDS011;57291;37.520;15.106;2024-03-23T03:48:06;17.33;;;11.60;;
54555;SDS011;57291;37.520;15.106;2024-03-23T03:50:32;12.55;;;11.07;;
54555;SDS011;57291;37.520;15.106;2024-03-23T03:52:59;15.75;;;11.65;;
54555;SDS011;57291;37.520;15.106;2024-03-23T03:55:25;14.70;;;11.68;;
54555;SDS011;57291;37.520;15.106;2024-03-23T03:57:51;16.67;;;12.68;;
54555;SDS011;57291;37.520;15.106;2024-03-23T04:00:17;14.95;;;12.68;;
54555;SDS011;57291;37.520;15.106;2024-03-23T04:02:44;15.35;;;12.88;;
54555;SDS011;57291;37.520;15.106;2024-03-23T04:05:10;15.23;;;13.00;;
54555;SDS011;57291;37.520;15.106;2024-03-23T04:07:36;16.27;;;12.48;;
54555;SDS011;57291;37.520;15.106;2024-03-23T04:10:02;15.38;;;11.88;;
54555;SDS011;57291;37.520;15.106;2024-03-23T04:12:33;14.52;;;11.80;;
54555;SDS011;57291;37.520;15.106;2024-03-23T04:14:59;14.88;;;11.13;;
54555;SDS011;57291;37.520;15.106;2024-03-23T04:17:26;15.35;;;11.02;;
54555;SDS011;57291;37.520;15.106;2024-03-23T04:19:57;14.15;;;11.15;;
54555;SDS011;57291;37.520;15.106;2024-03-23T04:22:24;15.73;;;11.00;;
54555;SDS011;57291;37.520;15.106;2024-03-23T04:24:55;13.15;;;10.02;;
54555;SDS011;57291;37.520;15.106;2024-03-23T04:27:23;11.43;;;8.55;;
54555;SDS011;57291;37.520;15.106;2024-03-23T04:29:49;12.00;;;9.18;;
54555;SDS011;57291;37.520;15.106;2024-03-23T04:32:16;11.88;;;8.60;;
54555;SDS011;57291;37.520;15.106;2024-03-23T04:34:43;11.60;;;8.55;;
54555;SDS011;57291;37.520;15.106;2024-03-23T04:37:10;9.90;;;7.88;;
54555;SDS011;57291;37.520;15.106;2024-03-23T04:39:36;9.75;;;7.85;;
54555;SDS011;57291;37.520;15.106;2024-03-23T04:42:04;10.15;;;8.00;;
54555;SDS011;57291;37.520;15.106;2024-03-23T04:44:31;10.57;;;8.25;;
54555;SDS011;57291;37.520;15.106;2024-03-23T04:46:57;11.23;;;7.90;;
54555;SDS011;57291;37.520;15.106;2024-03-23T04:49:23;9.23;;;7.65;;
54555;SDS011;57291;37.520;15.106;2024-03-23T04:51:50;9.40;;;7.38;;
54555;SDS011;57291;37.520;15.106;2024-03-23T04:54:17;10.07;;;7.30;;
54555;SDS011;57291;37.520;15.106;2024-03-23T04:56:43;7.85;;;7.03;;
54555;SDS011;57291;37.520;15.106;2024-03-23T04:59:09;8.73;;;6.78;;
54555;SDS011;57291;37.520;15.106;2024-03-23T05:01:37;11.32;;;7.88;;
54555;SDS011;57291;37.520;15.106;2024-03-23T05:04:08;13.23;;;8.18;;
54555;SDS011;57291;37.520;15.106;2024-03-23T05:06:35;12.00;;;7.97;;
54555;SDS011;57291;37.520;15.106;2024-03-23T05:09:01;11.05;;;8.32;;
54555;SDS011;57291;37.520;15.106;2024-03-23T05:11:40;12.25;;;8.45;;
54555;SDS011;57291;37.520;15.106;2024-03-23T05:14:11;10.93;;;8.35;;
54555;SDS011;57291;37.520;15.106;2024-03-23T05:16:39;11.38;;;8.63;;
54555;SDS011;57291;37.520;15.106;2024-03-23T05:19:05;12.73;;;9.00;;
54555;SDS011;57291;37.520;15.106;2024-03-23T05:21:31;9.52;;;7.97;;
54555;SDS011;57291;37.520;15.106;2024-03-23T05:23:58;13.18;;;7.72;;
54555;SDS011;57291;37.520;15.106;2024-03-23T05:26:24;10.48;;;7.43;;
54555;SDS011;57291;37.520;15.106;2024-03-23T05:28:50;12.80;;;7.15;;
54555;SDS011;57291;37.520;15.106;2024-03-23T05:31:26;9.82;;;6.93;;
54555;SDS011;57291;37.520;15.106;2024-03-23T05:33:54;8.90;;;6.47;;
54555;SDS011;57291;37.520;15.106;2024-03-23T05:36:20;8.65;;;6.43;;
54555;SDS011;57291;37.520;15.106;2024-03-23T05:38:47;7.50;;;5.95;;
54555;SDS011;57291;37.520;15.106;2024-03-23T05:41:13;8.23;;;5.40;;
54555;SDS011;57291;37.520;15.106;2024-03-23T05:43:40;7.72;;;5.18;;
54555;SDS011;57291;37.520;15.106;2024-03-23T05:46:06;8.07;;;4.68;;
54555;SDS011;57291;37.520;15.106;2024-03-23T05:48:35;9.05;;;5.20;;
54555;SDS011;57291;37.520;15.106;2024-03-23T05:51:02;7.30;;;4.90;;
54555;SDS011;57291;37.520;15.106;2024-03-23T05:53:28;8.95;;;4.30;;
54555;SDS011;57291;37.520;15.106;2024-03-23T05:56:02;7.50;;;3.92;;
54555;SDS011;57291;37.520;15.106;2024-03-23T05:58:33;9.23;;;4.10;;
54555;SDS011;57291;37.520;15.106;2024-03-23T06:00:59;7.03;;;4.28;;
54555;SDS011;57291;37.520;15.106;2024-03-23T06:03:27;8.02;;;4.72;;
54555;SDS011;57291;37.520;15.106;2024-03-23T06:05:54;7.30;;;4.28;;
54555;SDS011;57291;37.520;15.106;2024-03-23T06:08:21;7.43;;;4.80;;
54555;SDS011;57291;37.520;15.106;2024-03-23T06:10:48;7.18;;;4.30;;
54555;SDS011;57291;37.520;15.106;2024-03-23T06:13:17;6.05;;;4.25;;
54555;SDS011;57291;37.520;15.106;2024-03-23T06:15:44;6.88;;;4.28;;
54555;SDS011;57291;37.520;15.106;2024-03-23T06:18:12;5.93;;;4.18;;
54555;SDS011;57291;37.520;15.106;2024-03-23T06:20:38;5.93;;;3.63;;
54555;SDS011;57291;37.520;15.106;2024-03-23T06:23:05;8.20;;;3.90;;
54555;SDS011;57291;37.520;15.106;2024-03-23T06:25:31;4.57;;;3.58;;
54555;SDS011;57291;37.520;15.106;2024-03-23T06:27:57;5.40;;;3.60;;
54555;SDS011;57291;37.520;15.106;2024-03-23T06:30:28;5.10;;;3.95;;
54555;SDS011;57291;37.520;15.106;2024-03-23T06:32:55;6.07;;;4.55;;
54555;SDS011;57291;37.520;15.106;2024-03-23T06:35:21;7.28;;;4.38;;
54555;SDS011;57291;37.520;15.106;2024-03-23T06:37:47;6.30;;;3.95;;
54555;SDS011;57291;37.520;15.106;2024-03-23T06:40:13;4.93;;;3.15;;
54555;SDS011;57291;37.520;15.106;2024-03-23T06:42:40;5.13;;;3.50;;
54555;SDS011;57291;37.520;15.106;2024-03-23T06:45:06;13.43;;;3.70;;
54555;SDS011;57291;37.520;15.106;2024-03-23T06:47:32;4.90;;;3.72;;
54555;SDS011;57291;37.520;15.106;2024-03-23T06:49:59;6.47;;;3.90;;
54555;SDS011;57291;37.520;15.106;2024-03-23T06:52:29;8.38;;;4.07;;
54555;SDS011;57291;37.520;15.106;2024-03-23T06:54:56;6.75;;;3.58;;
54555;SDS011;57291;37.520;15.106;2024-03-23T06:57:23;6.75;;;3.80;;
54555;SDS011;57291;37.520;15.106;2024-03-23T06:59:49;10.20;;;4.85;;
54555;SDS011;57291;37.520;15.106;2024-03-23T07:02:16;8.27;;;4.07;;
54555;SDS011;57291;37.520;15.106;2024-03-23T07:04:42;8.20;;;4.43;;
54555;SDS011;57291;37.520;15.106;2024-03-23T07:07:08;7.85;;;5.10;;
54555;SDS011;57291;37.520;15.106;2024-03-23T07:09:34;5.30;;;3.92;;
54555;SDS011;57291;37.520;15.106;2024-03-23T07:12:01;7.05;;;4.28;;
54555;SDS011;57291;37.520;15.106;2024-03-23T07:14:27;5.78;;;3.85;;
54555;SDS011;57291;37.520;15.106;2024-03-23T07:16:53;7.90;;;4.93;;
54555;SDS011;57291;37.520;15.106;2024-03-23T07:19:19;7.50;;;4.93;;
54555;SDS011;57291;37.520;15.106;2024-03-23T07:21:45;9.45;;;5.40;;
54555;SDS011;57291;37.520;15.106;2024-03-23T07:24:13;11.02;;;6.03;;
54555;SDS011;57291;37.520;15.106;2024-03-23T07:26:39;7.28;;;4.65;;
54555;SDS011;57291;37.520;15.106;2024-03-23T07:29:06;7.85;;;4.60;;
54555;SDS011;57291;37.520;15.106;2024-03-23T07:31:32;8.60;;;4.30;;
54555;SDS011;57291;37.520;15.106;2024-03-23T07:33:59;8.57;;;4.10;;
54555;SDS011;57291;37.520;15.106;2024-03-23T07:36:25;10.38;;;5.60;;
54555;SDS011;57291;37.520;15.106;2024-03-23T07:38:51;8.55;;;5.30;;
54555;SDS011;57291;37.520;15.106;2024-03-23T07:41:18;6.20;;;4.80;;
54555;SDS011;57291;37.520;15.106;2024-03-23T07:43:45;8.88;;;5.38;;
54555;SDS011;57291;37.520;15.106;2024-03-23T07:46:13;8.75;;;5.35;;
54555;SDS011;57291;37.520;15.106;2024-03-23T07:48:40;12.75;;;5.35;;
54555;SDS011;57291;37.520;15.106;2024-03-23T07:51:15;8.80;;;6.22;;
54555;SDS011;57291;37.520;15.106;2024-03-23T07:53:43;9.35;;;6.82;;
54555;SDS011;57291;37.520;15.106;2024-03-23T07:56:18;12.35;;;6.63;;
54555;SDS011;57291;37.520;15.106;2024-03-23T07:58:49;7.65;;;6.10;;
54555;SDS011;57291;37.520;15.106;2024-03-23T08:01:16;7.82;;;6.00;;
54555;SDS011;57291;37.520;15.106;2024-03-23T08:03:43;10.02;;;5.82;;
54555;SDS011;57291;37.520;15.106;2024-03-23T08:06:11;12.70;;;5.47;;
54555;SDS011;57291;37.520;15.106;2024-03-23T08:08:47;9.90;;;6.60;;
54555;SDS011;57291;37.520;15.106;2024-03-23T08:11:14;12.63;;;5.93;;
54555;SDS011;57291;37.520;15.106;2024-03-23T08:13:41;12.43;;;6.10;;
54555;SDS011;57291;37.520;15.106;2024-03-23T08:16:08;10.63;;;6.35;;
54555;SDS011;57291;37.520;15.106;2024-03-23T08:18:34;8.60;;;6.03;;
54555;SDS011;57291;37.520;15.106;2024-03-23T08:21:01;8.80;;;6.63;;
54555;SDS011;57291;37.520;15.106;2024-03-23T08:23:32;11.30;;;6.50;;
54555;SDS011;57291;37.520;15.106;2024-03-23T08:26:01;11.07;;;6.47;;
54555;SDS011;57291;37.520;15.106;2024-03-23T08:28:29;8.60;;;6.03;;
54555;SDS011;57291;37.520;15.106;2024-03-23T08:30:56;7.93;;;5.55;;
54555;SDS011;57291;37.520;15.106;2024-03-23T08:33:23;8.02;;;6.15;;
54555;SDS011;57291;37.520;15.106;2024-03-23T08:36:09;7.65;;;5.63;;
54555;SDS011;57291;37.520;15.106;2024-03-23T08:38:40;8.23;;;5.63;;
54555;SDS011;57291;37.520;15.106;2024-03-23T08:41:10;8.75;;;5.45;;
54555;SDS011;57291;37.520;15.106;2024-03-23T08:43:38;10.50;;;5.82;;
54555;SDS011;57291;37.520;15.106;2024-03-23T08:48:33;7.95;;;4.95;;
54555;SDS011;57291;37.520;15.106;2024-03-23T08:51:07;6.63;;;4.78;;
54555;SDS011;57291;37.520;15.106;2024-03-23T08:53:35;6.60;;;4.75;;
54555;SDS011;57291;37.520;15.106;2024-03-23T08:56:02;7.70;;;5.07;;
54555;SDS011;57291;37.520;15.106;2024-03-23T08:58:30;7.07;;;5.10;;
54555;SDS011;57291;37.520;15.106;2024-03-23T09:01:02;9.23;;;4.53;;
54555;SDS011;57291;37.520;15.106;2024-03-23T09:03:30;7.78;;;5.25;;
54555;SDS011;57291;37.520;15.106;2024-03-23T09:05:57;9.63;;;4.72;;
54555;SDS011;57291;37.520;15.106;2024-03-23T09:08:24;5.15;;;4.32;;
54555;SDS011;57291;37.520;15.106;2024-03-23T09:10:51;6.60;;;4.53;;
54555;SDS011;57291;37.520;15.106;2024-03-23T09:13:17;6.88;;;4.22;;
54555;SDS011;57291;37.520;15.106;2024-03-23T09:15:50;6.20;;;4.50;;
54555;SDS011;57291;37.520;15.106;2024-03-23T09:18:17;5.68;;;4.10;;
54555;SDS011;57291;37.520;15.106;2024-03-23T09:20:43;6.78;;;4.40;;
54555;SDS011;57291;37.520;15.106;2024-03-23T09:23:10;5.28;;;4.00;;
54555;SDS011;57291;37.520;15.106;2024-03-23T09:25:37;6.13;;;3.90;;
54555;SDS011;57291;37.520;15.106;2024-03-23T09:28:07;4.85;;;3.55;;
54555;SDS011;57291;37.520;15.106;2024-03-23T09:30:36;6.90;;;4.03;;
54555;SDS011;57291;37.520;15.106;2024-03-23T09:33:11;6.30;;;4.18;;
54555;SDS011;57291;37.520;15.106;2024-03-23T09:35:38;8.10;;;4.93;;
54555;SDS011;57291;37.520;15.106;2024-03-23T09:38:13;9.40;;;4.68;;
54555;SDS011;57291;37.520;15.106;2024-03-23T09:40:42;6.72;;;4.70;;
54555;SDS011;57291;37.520;15.106;2024-03-23T09:43:09;10.95;;;5.35;;
54555;SDS011;57291;37.520;15.106;2024-03-23T09:45:36;14.15;;;5.28;;
54555;SDS011;57291;37.520;15.106;2024-03-23T09:48:06;10.50;;;4.88;;
54555;SDS011;57291;37.520;15.106;2024-03-23T09:50:33;7.70;;;4.93;;
54555;SDS011;57291;37.520;15.106;2024-03-23T09:53:00;10.43;;;5.00;;
54555;SDS011;57291;37.520;15.106;2024-03-23T09:55:26;7.47;;;4.45;;
54555;SDS011;57291;37.520;15.106;2024-03-23T09:57:53;7.50;;;4.90;;
54555;SDS011;57291;37.520;15.106;2024-03-23T10:00:19;8.45;;;5.10;;
54555;SDS011;57291;37.520;15.106;2024-03-23T10:02:45;7.15;;;4.60;;
54555;SDS011;57291;37.520;15.106;2024-03-23T10:05:23;7.65;;;5.53;;
54555;SDS011;57291;37.520;15.106;2024-03-23T10:07:50;7.53;;;4.75;;
54555;SDS011;57291;37.520;15.106;2024-03-23T10:10:16;7.47;;;4.57;;
54555;SDS011;57291;37.520;15.106;2024-03-23T10:12:43;6.50;;;4.03;;
54555;SDS011;57291;37.520;15.106;2024-03-23T10:15:19;5.65;;;3.53;;
54555;SDS011;57291;37.520;15.106;2024-03-23T10:17:49;5.75;;;3.63;;
54555;SDS011;57291;37.520;15.106;2024-03-23T10:20:19;5.53;;;3.55;;
54555;SDS011;57291;37.520;15.106;2024-03-23T10:22:50;5.40;;;4.05;;
54555;SDS011;57291;37.520;15.106;2024-03-23T10:25:22;7.10;;;4.30;;
54555;SDS011;57291;37.520;15.106;2024-03-23T10:27:57;6.85;;;5.30;;
54555;SDS011;57291;37.520;15.106;2024-03-23T10:30:25;11.88;;;5.30;;
54555;SDS011;57291;37.520;15.106;2024-03-23T10:33:14;8.10;;;5.00;;
54555;SDS011;57291;37.520;15.106;2024-03-23T10:35:41;6.22;;;4.65;;
54555;SDS011;57291;37.520;15.106;2024-03-23T10:38:08;7.25;;;4.70;;
54555;SDS011;57291;37.520;15.106;2024-03-23T10:40:34;6.82;;;5.03;;
54555;SDS011;57291;37.520;15.106;2024-03-23T10:43:05;6.53;;;4.75;;
54555;SDS011;57291;37.520;15.106;2024-03-23T10:45:34;6.28;;;4.40;;
54555;SDS011;57291;37.520;15.106;2024-03-23T10:48:01;8.55;;;4.88;;
54555;SDS011;57291;37.520;15.106;2024-03-23T10:50:28;8.68;;;5.45;;
54555;SDS011;57291;37.520;15.106;2024-03-23T10:52:54;7.53;;;5.30;;
54555;SDS011;57291;37.520;15.106;2024-03-23T10:55:25;6.13;;;4.90;;
54555;SDS011;57291;37.520;15.106;2024-03-23T10:57:55;6.88;;;5.63;;
54555;SDS011;57291;37.520;15.106;2024-03-23T11:00:24;8.65;;;5.20;;
54555;SDS011;57291;37.520;15.106;2024-03-23T11:02:50;6.88;;;4.80;;
54555;SDS011;57291;37.520;15.106;2024-03-23T11:07:53;6.38;;;4.78;;
54555;SDS011;57291;37.520;15.106;2024-03-23T11:10:29;6.82;;;5.30;;
54555;SDS011;57291;37.520;15.106;2024-03-23T11:12:57;7.00;;;5.35;;
54555;SDS011;57291;37.520;15.106;2024-03-23T11:15:23;7.82;;;6.00;;
54555;SDS011;57291;37.520;15.106;2024-03-23T11:18:05;7.78;;;6.22;;
54555;SDS011;57291;37.520;15.106;2024-03-23T11:20:35;6.13;;;5.45;;
54555;SDS011;57291;37.520;15.106;2024-03-23T11:23:01;6.80;;;5.38;;
54555;SDS011;57291;37.520;15.106;2024-03-23T11:25:29;8.77;;;6.45;;
54555;SDS011;57291;37.520;15.106;2024-03-23T11:27:56;9.60;;;6.43;;
54555;SDS011;57291;37.520;15.106;2024-03-23T11:30:24;7.50;;;6.55;;
54555;SDS011;57291;37.520;15.106;2024-03-23T11:32:52;8.48;;;6.47;;
54555;SDS011;57291;37.520;15.106;2024-03-23T11:35:30;7.97;;;6.90;;
54555;SDS011;57291;37.520;15.106;2024-03-23T11:38:03;9.02;;;6.60;;
54555;SDS011;57291;37.520;15.106;2024-03-23T11:40:29;10.13;;;7.05;;
54555;SDS011;57291;37.520;15.106;2024-03-23T11:43:00;9.73;;;6.95;;
54555;SDS011;57291;37.520;15.106;2024-03-23T11:45:29;9.05;;;7.38;;
54555;SDS011;57291;37.520;15.106;2024-03-23T11:48:01;8.20;;;6.35;;
54555;SDS011;57291;37.520;15.106;2024-03-23T11:50:54;12.88;;;6.72;;
54555;SDS011;57291;37.520;15.106;2024-03-23T11:53:24;8.57;;;6.63;;
54555;SDS011;57291;37.520;15.106;2024-03-23T11:58:19;7.00;;;6.07;;
54555;SDS011;57291;37.520;15.106;2024-03-23T12:03:23;8.57;;;7.68;;
54555;SDS011;57291;37.520;15.106;2024-03-23T12:05:55;11.32;;;8.45;;
54555;SDS011;57291;37.520;15.106;2024-03-23T12:08:23;9.93;;;8.48;;
54555;SDS011;57291;37.520;15.106;2024-03-23T12:11:04;9.93;;;8.00;;
54555;SDS011;57291;37.520;15.106;2024-03-23T12:13:35;9.13;;;6.75;;
54555;SDS011;57291;37.520;15.106;2024-03-23T12:16:11;8.27;;;7.03;;
54555;SDS011;57291;37.520;15.106;2024-03-23T12:18:44;8.82;;;7.38;;
54555;SDS011;57291;37.520;15.106;2024-03-23T12:21:12;8.80;;;7.88;;
54555;SDS011;57291;37.520;15.106;2024-03-23T12:23:39;8.43;;;7.03;;
54555;SDS011;57291;37.520;15.106;2024-03-23T12:26:05;9.27;;;8.20;;
54555;SDS011;57291;37.520;15.106;2024-03-23T12:28:32;10.88;;;9.13;;
54555;SDS011;57291;37.520;15.106;2024-03-23T12:30:58;13.25;;;8.38;;
54555;SDS011;57291;37.520;15.106;2024-03-23T12:33:25;9.18;;;8.15;;
54555;SDS011;57291;37.520;15.106;2024-03-23T12:35:51;8.75;;;7.90;;
54555;SDS011;57291;37.520;15.106;2024-03-23T12:38:17;9.23;;;7.70;;
54555;SDS011;57291;37.520;15.106;2024-03-23T12:40:47;9.18;;;7.70;;
54555;SDS011;57291;37.520;15.106;2024-03-23T12:43:14;10.57;;;7.55;;
54555;SDS011;57291;37.520;15.106;2024-03-23T12:45:40;8.15;;;7.35;;
54555;SDS011;57291;37.520;15.106;2024-03-23T12:48:07;7.72;;;6.93;;
54555;SDS011;57291;37.520;15.106;2024-03-23T12:50:33;9.32;;;7.80;;
54555;SDS011;57291;37.520;15.106;2024-03-23T12:52:59;11.90;;;8.70;;
54555;SDS011;57291;37.520;15.106;2024-03-23T12:55:26;8.77;;;7.88;;
54555;SDS011;57291;37.520;15.106;2024-03-23T12:57:52;10.50;;;8.30;;
54555;SDS011;57291;37.520;15.106;2024-03-23T13:00:18;11.00;;;8.57;;
54555;SDS011;57291;37.520;15.106;2024-03-23T13:02:45;8.90;;;7.90;;
54555;SDS011;57291;37.520;15.106;2024-03-23T13:05:11;9.38;;;8.38;;
54555;SDS011;57291;37.520;15.106;2024-03-23T13:07:38;9.82;;;7.95;;
54555;SDS011;57291;37.520;15.106;2024-03-23T13:10:05;10.65;;;8.35;;
54555;SDS011;57291;37.520;15.106;2024-03-23T13:12:32;10.02;;;9.02;;
54555;SDS011;57291;37.520;15.106;2024-03-23T13:14:59;9.93;;;8.52;;
54555;SDS011;57291;37.520;15.106;2024-03-23T13:17:26;10.32;;;8.85;;
54555;SDS011;57291;37.520;15.106;2024-03-23T13:19:53;9.75;;;7.32;;
54555;SDS011;57291;37.520;15.106;2024-03-23T13:22:21;8.82;;;7.93;;
54555;SDS011;57291;37.520;15.106;2024-03-23T13:24:48;10.30;;;7.90;;
54555;SDS011;57291;37.520;15.106;2024-03-23T13:27:14;10.25;;;7.93;;
54555;SDS011;57291;37.520;15.106;2024-03-23T13:29:40;12.73;;;9.45;;
54555;SDS011;57291;37.520;15.106;2024-03-23T13:32:07;8.95;;;8.05;;
54555;SDS011;57291;37.520;15.106;2024-03-23T13:34:33;9.40;;;8.13;;
54555;SDS011;57291;37.520;15.106;2024-03-23T13:37:01;10.95;;;8.43;;
54555;SDS011;57291;37.520;15.106;2024-03-23T13:39:27;8.55;;;7.70;;
54555;SDS011;57291;37.520;15.106;2024-03-23T13:41:53;10.93;;;9.60;;
54555;SDS011;57291;37.520;15.106;2024-03-23T13:44:23;12.38;;;9.55;;
54555;SDS011;57291;37.520;15.106;2024-03-23T13:46:49;11.10;;;8.80;;
54555;SDS011;57291;37.520;15.106;2024-03-23T13:51:56;13.63;;;10.93;;
54555;SDS011;57291;37.520;15.106;2024-03-23T13:54:24;30.63;;;21.58;;
54555;SDS011;57291;37.520;15.106;2024-03-23T13:56:51;38.15;;;22.02;;
54555;SDS011;57291;37.520;15.106;2024-03-23T13:59:18;26.85;;;18.30;;
54555;SDS011;57291;37.520;15.106;2024-03-23T14:01:45;24.52;;;16.77;;
54555;SDS011;57291;37.520;15.106;2024-03-23T14:04:13;40.45;;;24.02;;
54555;SDS011;57291;37.520;15.106;2024-03-23T14:06:45;16.20;;;10.90;;
54555;SDS011;57291;37.520;15.106;2024-03-23T14:09:12;42.15;;;25.98;;
54555;SDS011;57291;37.520;15.106;2024-03-23T14:11:40;26.75;;;17.40;;
54555;SDS011;57291;37.520;15.106;2024-03-23T14:14:10;64.03;;;35.63;;
54555;SDS011;57291;37.520;15.106;2024-03-23T14:16:36;10.30;;;8.77;;
54555;SDS011;57291;37.520;15.106;2024-03-23T14:19:02;17.20;;;13.80;;
54555;SDS011;57291;37.520;15.106;2024-03-23T14:21:32;10.32;;;8.18;;
54555;SDS011;57291;37.520;15.106;2024-03-23T14:24:00;10.85;;;9.65;;
54555;SDS011;57291;37.520;15.106;2024-03-23T14:26:26;12.45;;;10.35;;
54555;SDS011;57291;37.520;15.106;2024-03-23T14:28:53;13.73;;;11.88;;
54555;SDS011;57291;37.520;15.106;2024-03-23T14:31:19;11.18;;;9.05;;
54555;SDS011;57291;37.520;15.106;2024-03-23T14:33:45;12.20;;;9.93;;
54555;SDS011;57291;37.520;15.106;2024-03-23T14:36:16;10.90;;;9.30;;
54555;SDS011;57291;37.520;15.106;2024-03-23T14:38:49;12.20;;;9.40;;
54555;SDS011;57291;37.520;15.106;2024-03-23T14:41:15;9.55;;;8.15;;
54555;SDS011;57291;37.520;15.106;2024-03-23T14:43:42;9.32;;;8.00;;
54555;SDS011;57291;37.520;15.106;2024-03-23T14:46:14;11.68;;;8.52;;
54555;SDS011;57291;37.520;15.106;2024-03-23T14:48:42;9.48;;;8.10;;
54555;SDS011;57291;37.520;15.106;2024-03-23T14:51:10;9.60;;;7.47;;
54555;SDS011;57291;37.520;15.106;2024-03-23T14:53:37;10.27;;;7.43;;
54555;SDS011;57291;37.520;15.106;2024-03-23T14:56:06;9.07;;;6.80;;
54555;SDS011;57291;37.520;15.106;2024-03-23T14:58:38;9.57;;;7.10;;
54555;SDS011;57291;37.520;15.106;2024-03-23T15:01:05;7.63;;;6.40;;
54555;SDS011;57291;37.520;15.106;2024-03-23T15:03:39;7.25;;;5.97;;
54555;SDS011;57291;37.520;15.106;2024-03-23T15:06:06;6.10;;;5.30;;
54555;SDS011;57291;37.520;15.106;2024-03-23T15:08:35;7.35;;;6.00;;
54555;SDS011;57291;37.520;15.106;2024-03-23T15:11:02;10.35;;;6.53;;
54555;SDS011;57291;37.520;15.106;2024-03-23T15:13:34;9.55;;;6.65;;
54555;SDS011;57291;37.520;15.106;2024-03-23T15:16:01;6.82;;;5.95;;
54555;SDS011;57291;37.520;15.106;2024-03-23T15:18:32;7.45;;;6.10;;
54555;SDS011;57291;37.520;15.106;2024-03-23T15:20:59;9.38;;;7.20;;
54555;SDS011;57291;37.520;15.106;2024-03-23T15:23:29;7.13;;;6.35;;
54555;SDS011;57291;37.520;15.106;2024-03-23T15:25:59;8.90;;;6.85;;
54555;SDS011;57291;37.520;15.106;2024-03-23T15:28:27;11.13;;;7.20;;
54555;SDS011;57291;37.520;15.106;2024-03-23T15:31:29;8.45;;;6.35;;
54555;SDS011;57291;37.520;15.106;2024-03-23T15:33:56;10.70;;;6.13;;
54555;SDS011;57291;37.520;15.106;2024-03-23T15:36:22;9.45;;;6.07;;
54555;SDS011;57291;37.520;15.106;2024-03-23T15:38:48;8.70;;;6.15;;